LGR888 NTAA-NTGU
Flight info
| Callsign | LGR888 |
|---|---|
| Flight time | 4h 31m |
| Altitude | 4000 |
| Route | NTYM NTTE DCT NTGV DCT NTGC DCT NTTG NTOK |
| Aircraft | R66/L-SFG/C |
Departure
| Time | 2026-05-09 16:18 |
|---|---|
| Airport | Fa'a'ā International Airport (NTAA) |
Arrival
| Time | 2026-05-09 20:49 |
|---|---|
| Airport | Arutua Airport (NTGU) |
| Time | Latitude | Longitude | Altitude | Speed | Heading |
|---|---|---|---|---|---|
| 2026-05-09 16:05 | -17.55797 | -149.60892 | 22 ft | 0 kts | 145° |
| 2026-05-09 16:13 | -17.55804 | -149.60899 | 31 ft | 4 kts | 283° |
| 2026-05-09 16:13 | -17.55775 | -149.60902 | 38 ft | 10 kts | 342° |
| 2026-05-09 16:13 | -17.55729 | -149.60931 | 30 ft | 2 kts | 29° |
| 2026-05-09 16:13 | -17.55697 | -149.60913 | 26 ft | 7 kts | 68° |
| 2026-05-09 16:14 | -17.55674 | -149.60877 | 25 ft | 4 kts | 40° |
| 2026-05-09 16:14 | -17.55627 | -149.60886 | 27 ft | 9 kts | 352° |
| 2026-05-09 16:14 | -17.55600 | -149.60901 | 25 ft | 2 kts | 338° |
| 2026-05-09 16:14 | -17.55583 | -149.60913 | 24 ft | 10 kts | 24° |
| 2026-05-09 16:15 | -17.55446 | -149.60765 | 41 ft | 41 kts | 37° |
| 2026-05-09 16:15 | -17.55204 | -149.60452 | 152 ft | 67 kts | 66° |
| 2026-05-09 16:15 | -17.54872 | -149.59994 | 176 ft | 95 kts | 42° |
| 2026-05-09 16:15 | -17.54208 | -149.59827 | 181 ft | 106 kts | 358° |
| 2026-05-09 16:16 | -17.53557 | -149.60225 | 184 ft | 113 kts | 313° |
| 2026-05-09 16:16 | -17.53048 | -149.60867 | 195 ft | 115 kts | 310° |
| 2026-05-09 16:16 | -17.52539 | -149.61514 | 195 ft | 114 kts | 307° |
| 2026-05-09 16:16 | -17.52104 | -149.62209 | 195 ft | 113 kts | 304° |
| 2026-05-09 16:17 | -17.51737 | -149.62939 | 199 ft | 114 kts | 291° |
| 2026-05-09 16:17 | -17.51573 | -149.63756 | 199 ft | 116 kts | 275° |
| 2026-05-09 16:17 | -17.51464 | -149.64603 | 195 ft | 116 kts | 276° |
| 2026-05-09 16:17 | -17.51356 | -149.65443 | 189 ft | 117 kts | 276° |
| 2026-05-09 16:18 | -17.51266 | -149.66261 | 279 ft | 109 kts | 275° |
| 2026-05-09 16:18 | -17.51189 | -149.67026 | 403 ft | 104 kts | 274° |
| 2026-05-09 16:18 | -17.51106 | -149.67786 | 538 ft | 107 kts | 276° |
| 2026-05-09 16:18 | -17.51054 | -149.68591 | 651 ft | 113 kts | 270° |
| 2026-05-09 16:19 | -17.51108 | -149.69417 | 769 ft | 115 kts | 264° |
| 2026-05-09 16:19 | -17.51118 | -149.70271 | 884 ft | 117 kts | 274° |
| 2026-05-09 16:19 | -17.50972 | -149.71117 | 1000 ft | 118 kts | 284° |
| 2026-05-09 16:19 | -17.50726 | -149.71935 | 1116 ft | 119 kts | 290° |
| 2026-05-09 16:20 | -17.50432 | -149.72745 | 1232 ft | 118 kts | 294° |
| 2026-05-09 16:20 | -17.50111 | -149.73540 | 1349 ft | 118 kts | 297° |
| 2026-05-09 16:20 | -17.49781 | -149.74313 | 1468 ft | 118 kts | 298° |
| 2026-05-09 16:20 | -17.49435 | -149.75105 | 1588 ft | 118 kts | 298° |
| 2026-05-09 16:21 | -17.48942 | -149.75754 | 1675 ft | 113 kts | 332° |
| 2026-05-09 16:21 | -17.48223 | -149.75931 | 1767 ft | 101 kts | 13° |
| 2026-05-09 16:21 | -17.47566 | -149.75726 | 1884 ft | 96 kts | 27° |
| 2026-05-09 16:21 | -17.46936 | -149.75497 | 2017 ft | 93 kts | 28° |
| 2026-05-09 16:22 | -17.46332 | -149.75276 | 2166 ft | 94 kts | 28° |
| 2026-05-09 16:22 | -17.45698 | -149.75040 | 2279 ft | 97 kts | 27° |
| 2026-05-09 16:22 | -17.45059 | -149.74805 | 2396 ft | 97 kts | 26° |
| 2026-05-09 16:22 | -17.44417 | -149.74570 | 2513 ft | 98 kts | 26° |
| 2026-05-09 16:23 | -17.43770 | -149.74333 | 2632 ft | 98 kts | 26° |
| 2026-05-09 16:23 | -17.43128 | -149.74097 | 2750 ft | 98 kts | 25° |
| 2026-05-09 16:23 | -17.42481 | -149.73862 | 2868 ft | 98 kts | 25° |
| 2026-05-09 16:23 | -17.41830 | -149.73625 | 2988 ft | 97 kts | 26° |
| 2026-05-09 16:24 | -17.41194 | -149.73392 | 3104 ft | 97 kts | 26° |
| 2026-05-09 16:24 | -17.40555 | -149.73160 | 3221 ft | 97 kts | 26° |
| 2026-05-09 16:24 | -17.39912 | -149.72925 | 3340 ft | 96 kts | 26° |
| 2026-05-09 16:24 | -17.39280 | -149.72691 | 3458 ft | 96 kts | 26° |
| 2026-05-09 16:25 | -17.38646 | -149.72459 | 3574 ft | 96 kts | 26° |
| 2026-05-09 16:25 | -17.38213 | -149.72302 | 3655 ft | 96 kts | 25° |
| 2026-05-09 16:25 | -17.37375 | -149.71995 | 3811 ft | 96 kts | 25° |
| 2026-05-09 16:25 | -17.36738 | -149.71764 | 3924 ft | 97 kts | 26° |
| 2026-05-09 16:26 | -17.36078 | -149.71521 | 3950 ft | 104 kts | 25° |
| 2026-05-09 16:26 | -17.35375 | -149.71263 | 3955 ft | 107 kts | 24° |
| 2026-05-09 16:26 | -17.34661 | -149.71005 | 3955 ft | 109 kts | 23° |
| 2026-05-09 16:26 | -17.33933 | -149.70743 | 3955 ft | 110 kts | 24° |
| 2026-05-09 16:27 | -17.33204 | -149.70477 | 3955 ft | 110 kts | 24° |
| 2026-05-09 16:27 | -17.32477 | -149.70212 | 3954 ft | 110 kts | 23° |
| 2026-05-09 16:27 | -17.31760 | -149.69951 | 3955 ft | 110 kts | 23° |
| 2026-05-09 16:27 | -17.31027 | -149.69684 | 3956 ft | 109 kts | 24° |
| 2026-05-09 16:28 | -17.30308 | -149.69421 | 3956 ft | 109 kts | 24° |
| 2026-05-09 16:28 | -17.29585 | -149.69156 | 3956 ft | 110 kts | 24° |
| 2026-05-09 16:28 | -17.28863 | -149.68892 | 3956 ft | 110 kts | 23° |
| 2026-05-09 16:28 | -17.28131 | -149.68623 | 3955 ft | 110 kts | 23° |
| 2026-05-09 16:29 | -17.27405 | -149.68359 | 3954 ft | 110 kts | 23° |
| 2026-05-09 16:29 | -17.26674 | -149.68092 | 3953 ft | 110 kts | 23° |
| 2026-05-09 16:29 | -17.25943 | -149.67827 | 3952 ft | 110 kts | 23° |
| 2026-05-09 16:29 | -17.25215 | -149.67560 | 3952 ft | 111 kts | 23° |
| 2026-05-09 16:30 | -17.24485 | -149.67294 | 3951 ft | 111 kts | 23° |
| 2026-05-09 16:30 | -17.23754 | -149.67027 | 3951 ft | 110 kts | 23° |
| 2026-05-09 16:30 | -17.23025 | -149.66760 | 3950 ft | 110 kts | 23° |
| 2026-05-09 16:30 | -17.22298 | -149.66495 | 3950 ft | 110 kts | 23° |
| 2026-05-09 16:31 | -17.21570 | -149.66229 | 3950 ft | 110 kts | 23° |
| 2026-05-09 16:31 | -17.20838 | -149.65964 | 3950 ft | 110 kts | 23° |
| 2026-05-09 16:31 | -17.20114 | -149.65698 | 3948 ft | 110 kts | 23° |
| 2026-05-09 16:31 | -17.19391 | -149.65433 | 3948 ft | 110 kts | 22° |
| 2026-05-09 16:32 | -17.18655 | -149.65166 | 3947 ft | 110 kts | 23° |
| 2026-05-09 16:32 | -17.18175 | -149.64992 | 3948 ft | 110 kts | 23° |
| 2026-05-09 16:32 | -17.17204 | -149.64638 | 3948 ft | 110 kts | 23° |
| 2026-05-09 16:32 | -17.16463 | -149.64368 | 3949 ft | 111 kts | 24° |
| 2026-05-09 16:33 | -17.15733 | -149.64102 | 3948 ft | 111 kts | 24° |
| 2026-05-09 16:33 | -17.15008 | -149.63835 | 3947 ft | 110 kts | 24° |
| 2026-05-09 16:33 | -17.14281 | -149.63571 | 3947 ft | 110 kts | 23° |
| 2026-05-09 16:33 | -17.13544 | -149.63301 | 3948 ft | 110 kts | 23° |
| 2026-05-09 16:34 | -17.12815 | -149.63036 | 3947 ft | 110 kts | 23° |
| 2026-05-09 16:34 | -17.12088 | -149.62770 | 3947 ft | 110 kts | 23° |
| 2026-05-09 16:34 | -17.11364 | -149.62505 | 3947 ft | 111 kts | 23° |
| 2026-05-09 16:34 | -17.10624 | -149.62238 | 3946 ft | 110 kts | 23° |
| 2026-05-09 16:35 | -17.09895 | -149.61971 | 3946 ft | 110 kts | 22° |
| 2026-05-09 16:35 | -17.09167 | -149.61706 | 3946 ft | 111 kts | 23° |
| 2026-05-09 16:35 | -17.08439 | -149.61441 | 3946 ft | 111 kts | 23° |
| 2026-05-09 16:35 | -17.07700 | -149.61173 | 3946 ft | 111 kts | 23° |
| 2026-05-09 16:36 | -17.06972 | -149.60907 | 3946 ft | 111 kts | 23° |
| 2026-05-09 16:36 | -17.04779 | -149.60106 | 3946 ft | 111 kts | 23° |
| 2026-05-09 16:37 | -17.04047 | -149.59840 | 3946 ft | 111 kts | 23° |
| 2026-05-09 16:37 | -17.03314 | -149.59573 | 3946 ft | 111 kts | 23° |
| 2026-05-09 16:37 | -17.02583 | -149.59306 | 3945 ft | 111 kts | 23° |
| 2026-05-09 16:37 | -17.01849 | -149.59039 | 3946 ft | 111 kts | 22° |
| 2026-05-09 16:38 | -17.01117 | -149.58783 | 3946 ft | 111 kts | 22° |
| 2026-05-09 16:38 | -17.00380 | -149.58530 | 3945 ft | 111 kts | 22° |
| 2026-05-09 16:38 | -16.99643 | -149.58279 | 3946 ft | 111 kts | 22° |
| 2026-05-09 16:38 | -16.98902 | -149.58025 | 3946 ft | 111 kts | 22° |
| 2026-05-09 16:39 | -16.98154 | -149.57773 | 3946 ft | 111 kts | 22° |
| 2026-05-09 16:39 | -16.97417 | -149.57520 | 3945 ft | 112 kts | 22° |
| 2026-05-09 16:39 | -16.96672 | -149.57266 | 3946 ft | 112 kts | 22° |
| 2026-05-09 16:39 | -16.95931 | -149.57014 | 3946 ft | 111 kts | 22° |
| 2026-05-09 16:40 | -16.95190 | -149.56761 | 3945 ft | 112 kts | 22° |
| 2026-05-09 16:40 | -16.94449 | -149.56505 | 3945 ft | 112 kts | 22° |
| 2026-05-09 16:42 | -16.89273 | -149.54700 | 3946 ft | 111 kts | 22° |
| 2026-05-09 16:42 | -16.88535 | -149.54450 | 3947 ft | 111 kts | 22° |
| 2026-05-09 16:42 | -16.87795 | -149.54196 | 3949 ft | 111 kts | 22° |
| 2026-05-09 16:42 | -16.87059 | -149.53946 | 3950 ft | 111 kts | 22° |
| 2026-05-09 16:43 | -16.86375 | -149.53590 | 3938 ft | 108 kts | 40° |
| 2026-05-09 16:43 | -16.85850 | -149.53032 | 3951 ft | 106 kts | 50° |
| 2026-05-09 16:43 | -16.85349 | -149.52461 | 3954 ft | 107 kts | 49° |
| 2026-05-09 16:43 | -16.84836 | -149.51883 | 3954 ft | 107 kts | 49° |
| 2026-05-09 16:44 | -16.84331 | -149.51311 | 3954 ft | 107 kts | 49° |
| 2026-05-09 16:44 | -16.83818 | -149.50731 | 3956 ft | 107 kts | 49° |
| 2026-05-09 16:44 | -16.83311 | -149.50160 | 3958 ft | 107 kts | 49° |
| 2026-05-09 16:44 | -16.82715 | -149.49689 | 3963 ft | 109 kts | 30° |
| 2026-05-09 16:45 | -16.82026 | -149.49345 | 3964 ft | 110 kts | 28° |
| 2026-05-09 16:45 | -16.81326 | -149.49017 | 3963 ft | 110 kts | 27° |
| 2026-05-09 16:45 | -16.80623 | -149.48697 | 3964 ft | 111 kts | 27° |
| 2026-05-09 16:45 | -16.79900 | -149.48379 | 3963 ft | 111 kts | 26° |
| 2026-05-09 16:46 | -16.79183 | -149.48068 | 3964 ft | 111 kts | 26° |
| 2026-05-09 16:46 | -16.78464 | -149.47765 | 3963 ft | 111 kts | 25° |
| 2026-05-09 16:46 | -16.77741 | -149.47464 | 3963 ft | 111 kts | 25° |
| 2026-05-09 16:46 | -16.77021 | -149.47165 | 3962 ft | 112 kts | 25° |
| 2026-05-09 16:47 | -16.76288 | -149.46863 | 3964 ft | 112 kts | 25° |
| 2026-05-09 16:47 | -16.75560 | -149.46564 | 3964 ft | 111 kts | 25° |
| 2026-05-09 16:47 | -16.74838 | -149.46271 | 3965 ft | 111 kts | 25° |
| 2026-05-09 16:47 | -16.74113 | -149.45976 | 3966 ft | 111 kts | 25° |
| 2026-05-09 16:48 | -16.73401 | -149.45688 | 3966 ft | 111 kts | 25° |
| 2026-05-09 16:48 | -16.72677 | -149.45395 | 3966 ft | 110 kts | 25° |
| 2026-05-09 16:48 | -16.71956 | -149.45103 | 3966 ft | 111 kts | 25° |
| 2026-05-09 16:48 | -16.71240 | -149.44815 | 3966 ft | 111 kts | 25° |
| 2026-05-09 16:49 | -16.70521 | -149.44524 | 3966 ft | 111 kts | 25° |
| 2026-05-09 16:49 | -16.69793 | -149.44229 | 3966 ft | 111 kts | 25° |
| 2026-05-09 16:49 | -16.69060 | -149.43933 | 3966 ft | 111 kts | 25° |
| 2026-05-09 16:50 | -16.67603 | -149.43346 | 3966 ft | 112 kts | 25° |
| 2026-05-09 16:50 | -16.66877 | -149.43053 | 3966 ft | 112 kts | 25° |
| 2026-05-09 16:50 | -16.66150 | -149.42761 | 3965 ft | 112 kts | 25° |
| 2026-05-09 16:50 | -16.65420 | -149.42468 | 3967 ft | 111 kts | 25° |
| 2026-05-09 16:51 | -16.64687 | -149.42172 | 3966 ft | 111 kts | 25° |
| 2026-05-09 16:51 | -16.63965 | -149.41882 | 3966 ft | 111 kts | 25° |
| 2026-05-09 16:51 | -16.63241 | -149.41592 | 3955 ft | 108 kts | 24° |
| 2026-05-09 16:51 | -16.62566 | -149.41327 | 3960 ft | 100 kts | 24° |
| 2026-05-09 16:52 | -16.61925 | -149.41072 | 3965 ft | 96 kts | 25° |
| 2026-05-09 16:52 | -16.61295 | -149.40820 | 3965 ft | 96 kts | 25° |
| 2026-05-09 16:52 | -16.60669 | -149.40570 | 3965 ft | 95 kts | 25° |
| 2026-05-09 16:52 | -16.60052 | -149.40323 | 3965 ft | 95 kts | 25° |
| 2026-05-09 16:53 | -16.59426 | -149.40070 | 3965 ft | 95 kts | 25° |
| 2026-05-09 16:53 | -16.58803 | -149.39821 | 3965 ft | 95 kts | 25° |
| 2026-05-09 16:53 | -16.58186 | -149.39574 | 3964 ft | 95 kts | 25° |
| 2026-05-09 16:53 | -16.57558 | -149.39322 | 3965 ft | 95 kts | 25° |
| 2026-05-09 16:54 | -16.56942 | -149.39075 | 3965 ft | 95 kts | 25° |
| 2026-05-09 16:54 | -16.56316 | -149.38823 | 3964 ft | 95 kts | 25° |
| 2026-05-09 16:54 | -16.55697 | -149.38573 | 3965 ft | 95 kts | 25° |
| 2026-05-09 16:54 | -16.55077 | -149.38322 | 3965 ft | 95 kts | 25° |
| 2026-05-09 16:55 | -16.54457 | -149.38075 | 3964 ft | 95 kts | 25° |
| 2026-05-09 16:55 | -16.53838 | -149.37825 | 3965 ft | 95 kts | 25° |
| 2026-05-09 16:55 | -16.53208 | -149.37572 | 3965 ft | 95 kts | 25° |
| 2026-05-09 16:55 | -16.52589 | -149.37323 | 3965 ft | 95 kts | 25° |
| 2026-05-09 16:56 | -16.51965 | -149.37071 | 3965 ft | 95 kts | 25° |
| 2026-05-09 16:56 | -16.51341 | -149.36822 | 3965 ft | 95 kts | 25° |
| 2026-05-09 16:56 | -16.50716 | -149.36571 | 3965 ft | 95 kts | 25° |
| 2026-05-09 16:56 | -16.50094 | -149.36322 | 3964 ft | 95 kts | 25° |
| 2026-05-09 16:57 | -16.49478 | -149.36075 | 3965 ft | 95 kts | 25° |
| 2026-05-09 16:57 | -16.48855 | -149.35823 | 3965 ft | 95 kts | 25° |
| 2026-05-09 16:57 | -16.48231 | -149.35571 | 3964 ft | 95 kts | 25° |
| 2026-05-09 16:57 | -16.47615 | -149.35324 | 3965 ft | 95 kts | 25° |
| 2026-05-09 16:58 | -16.46989 | -149.35074 | 3964 ft | 95 kts | 25° |
| 2026-05-09 16:58 | -16.46368 | -149.34822 | 3965 ft | 95 kts | 24° |
| 2026-05-09 16:58 | -16.45749 | -149.34575 | 3963 ft | 96 kts | 25° |
| 2026-05-09 16:58 | -16.45118 | -149.34320 | 3960 ft | 96 kts | 24° |
| 2026-05-09 16:59 | -16.44487 | -149.34068 | 3956 ft | 96 kts | 24° |
| 2026-05-09 16:59 | -16.43855 | -149.33813 | 3955 ft | 96 kts | 24° |
| 2026-05-09 16:59 | -16.43229 | -149.33565 | 3954 ft | 96 kts | 25° |
| 2026-05-09 16:59 | -16.42599 | -149.33311 | 3954 ft | 96 kts | 25° |
| 2026-05-09 17:00 | -16.41969 | -149.33058 | 3954 ft | 96 kts | 25° |
| 2026-05-09 17:00 | -16.41339 | -149.32805 | 3954 ft | 96 kts | 25° |
| 2026-05-09 17:00 | -16.40715 | -149.32555 | 3954 ft | 96 kts | 25° |
| 2026-05-09 17:00 | -16.40086 | -149.32301 | 3954 ft | 96 kts | 25° |
| 2026-05-09 17:01 | -16.39454 | -149.32048 | 3955 ft | 97 kts | 25° |
| 2026-05-09 17:01 | -16.38821 | -149.31793 | 3955 ft | 97 kts | 25° |
| 2026-05-09 17:01 | -16.38188 | -149.31538 | 3955 ft | 97 kts | 25° |
| 2026-05-09 17:01 | -16.37557 | -149.31287 | 3956 ft | 97 kts | 25° |
| 2026-05-09 17:02 | -16.36926 | -149.31033 | 3956 ft | 96 kts | 25° |
| 2026-05-09 17:02 | -16.36296 | -149.30780 | 3957 ft | 97 kts | 24° |
| 2026-05-09 17:02 | -16.35666 | -149.30527 | 3957 ft | 97 kts | 25° |
| 2026-05-09 17:02 | -16.35041 | -149.30278 | 3957 ft | 96 kts | 25° |
| 2026-05-09 17:03 | -16.34410 | -149.30025 | 3957 ft | 96 kts | 25° |
| 2026-05-09 17:04 | -16.29996 | -149.28253 | 3953 ft | 96 kts | 25° |
| 2026-05-09 17:05 | -16.29372 | -149.28003 | 3954 ft | 96 kts | 24° |
| 2026-05-09 17:05 | -16.28742 | -149.27751 | 3953 ft | 96 kts | 25° |
| 2026-05-09 17:05 | -16.28115 | -149.27499 | 3953 ft | 96 kts | 25° |
| 2026-05-09 17:05 | -16.27487 | -149.27248 | 3952 ft | 96 kts | 25° |
| 2026-05-09 17:06 | -16.26851 | -149.26993 | 3952 ft | 96 kts | 25° |
| 2026-05-09 17:06 | -16.26223 | -149.26741 | 3953 ft | 96 kts | 25° |
| 2026-05-09 17:06 | -16.25595 | -149.26488 | 3951 ft | 97 kts | 25° |
| 2026-05-09 17:06 | -16.24957 | -149.26233 | 3951 ft | 97 kts | 25° |
| 2026-05-09 17:07 | -16.24332 | -149.25983 | 3950 ft | 97 kts | 25° |
| 2026-05-09 17:07 | -16.24121 | -149.25899 | 3949 ft | 97 kts | 25° |
| 2026-05-09 17:07 | -16.23069 | -149.25476 | 3948 ft | 97 kts | 25° |
| 2026-05-09 17:07 | -16.22440 | -149.25226 | 3947 ft | 97 kts | 25° |
| 2026-05-09 17:08 | -16.21809 | -149.24973 | 3947 ft | 97 kts | 25° |
| 2026-05-09 17:08 | -16.20534 | -149.24461 | 3947 ft | 97 kts | 25° |
| 2026-05-09 17:08 | -16.19900 | -149.24206 | 3947 ft | 97 kts | 25° |
| 2026-05-09 17:09 | -16.19265 | -149.23952 | 3947 ft | 97 kts | 25° |
| 2026-05-09 17:09 | -16.18629 | -149.23698 | 3947 ft | 97 kts | 25° |
| 2026-05-09 17:09 | -16.17996 | -149.23445 | 3948 ft | 97 kts | 25° |
| 2026-05-09 17:09 | -16.17359 | -149.23190 | 3948 ft | 97 kts | 25° |
| 2026-05-09 17:10 | -16.16727 | -149.22937 | 3949 ft | 97 kts | 25° |
| 2026-05-09 17:10 | -16.16098 | -149.22685 | 3950 ft | 96 kts | 25° |
| 2026-05-09 17:10 | -16.15468 | -149.22430 | 3950 ft | 97 kts | 25° |
| 2026-05-09 17:10 | -16.14834 | -149.22177 | 3950 ft | 97 kts | 25° |
| 2026-05-09 17:11 | -16.14200 | -149.21924 | 3949 ft | 97 kts | 25° |
| 2026-05-09 17:11 | -16.13563 | -149.21669 | 3948 ft | 97 kts | 25° |
| 2026-05-09 17:11 | -16.12927 | -149.21416 | 3949 ft | 97 kts | 25° |
| 2026-05-09 17:11 | -16.12294 | -149.21162 | 3950 ft | 97 kts | 25° |
| 2026-05-09 17:12 | -16.11664 | -149.20909 | 3950 ft | 97 kts | 25° |
| 2026-05-09 17:12 | -16.11028 | -149.20656 | 3953 ft | 97 kts | 25° |
| 2026-05-09 17:12 | -16.10398 | -149.20403 | 3957 ft | 96 kts | 25° |
| 2026-05-09 17:12 | -16.09769 | -149.20151 | 3962 ft | 96 kts | 25° |
| 2026-05-09 17:13 | -16.09144 | -149.19900 | 3966 ft | 96 kts | 25° |
| 2026-05-09 17:13 | -16.08515 | -149.19649 | 3967 ft | 96 kts | 25° |
| 2026-05-09 17:13 | -16.07877 | -149.19394 | 3967 ft | 97 kts | 25° |
| 2026-05-09 17:13 | -16.07246 | -149.19141 | 3967 ft | 97 kts | 25° |
| 2026-05-09 17:14 | -16.06617 | -149.18890 | 3967 ft | 97 kts | 25° |
| 2026-05-09 17:14 | -16.05975 | -149.18634 | 3967 ft | 97 kts | 25° |
| 2026-05-09 17:14 | -16.05344 | -149.18382 | 3967 ft | 97 kts | 25° |
| 2026-05-09 17:14 | -16.04712 | -149.18131 | 3967 ft | 97 kts | 25° |
| 2026-05-09 17:15 | -16.04075 | -149.17874 | 3967 ft | 97 kts | 25° |
| 2026-05-09 17:15 | -16.03440 | -149.17621 | 3967 ft | 98 kts | 25° |
| 2026-05-09 17:15 | -16.02801 | -149.17364 | 3967 ft | 97 kts | 25° |
| 2026-05-09 17:15 | -16.02159 | -149.17108 | 3967 ft | 97 kts | 25° |
| 2026-05-09 17:16 | -16.01530 | -149.16856 | 3967 ft | 97 kts | 25° |
| 2026-05-09 17:17 | -15.97093 | -149.15083 | 3967 ft | 97 kts | 25° |
| 2026-05-09 17:18 | -15.96458 | -149.14830 | 3967 ft | 97 kts | 25° |
| 2026-05-09 17:18 | -15.95822 | -149.14577 | 3967 ft | 97 kts | 25° |
| 2026-05-09 17:18 | -15.95187 | -149.14322 | 3967 ft | 97 kts | 25° |
| 2026-05-09 17:18 | -15.94556 | -149.14070 | 3967 ft | 97 kts | 25° |
| 2026-05-09 17:19 | -15.93916 | -149.13815 | 3967 ft | 97 kts | 25° |
| 2026-05-09 17:19 | -15.93276 | -149.13559 | 3967 ft | 97 kts | 25° |
| 2026-05-09 17:19 | -15.92646 | -149.13307 | 3967 ft | 97 kts | 25° |
| 2026-05-09 17:19 | -15.92006 | -149.13049 | 3967 ft | 97 kts | 25° |
| 2026-05-09 17:20 | -15.91371 | -149.12796 | 3967 ft | 97 kts | 24° |
| 2026-05-09 17:20 | -15.90733 | -149.12543 | 3967 ft | 97 kts | 25° |
| 2026-05-09 17:20 | -15.90105 | -149.12293 | 3967 ft | 97 kts | 25° |
| 2026-05-09 17:20 | -15.89461 | -149.12036 | 3967 ft | 97 kts | 25° |
| 2026-05-09 17:21 | -15.88825 | -149.11781 | 3967 ft | 97 kts | 25° |
| 2026-05-09 17:21 | -15.88192 | -149.11530 | 3967 ft | 97 kts | 25° |
| 2026-05-09 17:21 | -15.87559 | -149.11276 | 3967 ft | 98 kts | 25° |
| 2026-05-09 17:21 | -15.86914 | -149.11020 | 3967 ft | 98 kts | 25° |
| 2026-05-09 17:22 | -15.86274 | -149.10763 | 3967 ft | 98 kts | 25° |
| 2026-05-09 17:22 | -15.85635 | -149.10509 | 3967 ft | 98 kts | 25° |
| 2026-05-09 17:22 | -15.84994 | -149.10251 | 3967 ft | 98 kts | 25° |
| 2026-05-09 17:22 | -15.84360 | -149.09999 | 3967 ft | 98 kts | 25° |
| 2026-05-09 17:23 | -15.83720 | -149.09743 | 3967 ft | 98 kts | 25° |
| 2026-05-09 17:23 | -15.83084 | -149.09489 | 3967 ft | 98 kts | 25° |
| 2026-05-09 17:23 | -15.82445 | -149.09235 | 3967 ft | 97 kts | 25° |
| 2026-05-09 17:23 | -15.81813 | -149.08983 | 3967 ft | 98 kts | 25° |
| 2026-05-09 17:25 | -15.78610 | -149.07707 | 3967 ft | 98 kts | 26° |
| 2026-05-09 17:25 | -15.77963 | -149.07449 | 3967 ft | 98 kts | 26° |
| 2026-05-09 17:25 | -15.77328 | -149.07194 | 3967 ft | 98 kts | 25° |
| 2026-05-09 17:25 | -15.76681 | -149.06937 | 3967 ft | 98 kts | 25° |
| 2026-05-09 17:26 | -15.76041 | -149.06680 | 3967 ft | 98 kts | 25° |
| 2026-05-09 17:26 | -15.75398 | -149.06424 | 3966 ft | 98 kts | 25° |
| 2026-05-09 17:26 | -15.74756 | -149.06168 | 3964 ft | 98 kts | 25° |
| 2026-05-09 17:26 | -15.74123 | -149.05917 | 3963 ft | 98 kts | 25° |
| 2026-05-09 17:27 | -15.73483 | -149.05661 | 3962 ft | 98 kts | 25° |
| 2026-05-09 17:27 | -15.72840 | -149.05406 | 3962 ft | 98 kts | 25° |
| 2026-05-09 17:27 | -15.72201 | -149.05151 | 3962 ft | 97 kts | 25° |
| 2026-05-09 17:27 | -15.71567 | -149.04900 | 3962 ft | 97 kts | 25° |
| 2026-05-09 17:28 | -15.70925 | -149.04643 | 3961 ft | 98 kts | 26° |
| 2026-05-09 17:28 | -15.70293 | -149.04390 | 3962 ft | 98 kts | 25° |
| 2026-05-09 17:28 | -15.69645 | -149.04132 | 3961 ft | 98 kts | 25° |
| 2026-05-09 17:28 | -15.69009 | -149.03879 | 3961 ft | 99 kts | 25° |
| 2026-05-09 17:29 | -15.68356 | -149.03618 | 3960 ft | 99 kts | 25° |
| 2026-05-09 17:29 | -15.67718 | -149.03365 | 3960 ft | 98 kts | 25° |
| 2026-05-09 17:29 | -15.67076 | -149.03108 | 3960 ft | 98 kts | 25° |
| 2026-05-09 17:29 | -15.66430 | -149.02850 | 3960 ft | 98 kts | 25° |
| 2026-05-09 17:30 | -15.65791 | -149.02597 | 3960 ft | 98 kts | 25° |
| 2026-05-09 17:30 | -15.65150 | -149.02342 | 3960 ft | 98 kts | 25° |
| 2026-05-09 17:30 | -15.64513 | -149.02087 | 3959 ft | 98 kts | 25° |
| 2026-05-09 17:30 | -15.63870 | -149.01833 | 3959 ft | 98 kts | 25° |
| 2026-05-09 17:31 | -15.63235 | -149.01579 | 3958 ft | 98 kts | 25° |
| 2026-05-09 17:31 | -15.62596 | -149.01326 | 3959 ft | 98 kts | 26° |
| 2026-05-09 17:32 | -15.60024 | -149.00301 | 3959 ft | 99 kts | 26° |
| 2026-05-09 17:32 | -15.59380 | -149.00044 | 3958 ft | 99 kts | 25° |
| 2026-05-09 17:32 | -15.58732 | -148.99786 | 3958 ft | 99 kts | 25° |
| 2026-05-09 17:33 | -15.58088 | -148.99532 | 3957 ft | 98 kts | 25° |
| 2026-05-09 17:33 | -15.57453 | -148.99278 | 3958 ft | 98 kts | 26° |
| 2026-05-09 17:33 | -15.56807 | -148.99022 | 3957 ft | 98 kts | 26° |
| 2026-05-09 17:33 | -15.56167 | -148.98767 | 3957 ft | 97 kts | 26° |
| 2026-05-09 17:34 | -15.55536 | -148.98515 | 3958 ft | 97 kts | 26° |
| 2026-05-09 17:35 | -15.51699 | -148.96989 | 3958 ft | 98 kts | 25° |
| 2026-05-09 17:35 | -15.51057 | -148.96733 | 3958 ft | 98 kts | 25° |
| 2026-05-09 17:36 | -15.50419 | -148.96480 | 3958 ft | 98 kts | 25° |
| 2026-05-09 17:36 | -15.49774 | -148.96225 | 3955 ft | 98 kts | 26° |
| 2026-05-09 17:36 | -15.49137 | -148.95970 | 3952 ft | 98 kts | 25° |
| 2026-05-09 17:36 | -15.48493 | -148.95715 | 3949 ft | 98 kts | 26° |
| 2026-05-09 17:37 | -15.47846 | -148.95458 | 3947 ft | 98 kts | 26° |
| 2026-05-09 17:37 | -15.47207 | -148.95204 | 3948 ft | 97 kts | 26° |
| 2026-05-09 17:37 | -15.46574 | -148.94952 | 3950 ft | 97 kts | 26° |
| 2026-05-09 17:37 | -15.45937 | -148.94701 | 3951 ft | 97 kts | 26° |
| 2026-05-09 17:38 | -15.45298 | -148.94446 | 3953 ft | 97 kts | 26° |
| 2026-05-09 17:38 | -15.44666 | -148.94194 | 3957 ft | 97 kts | 26° |
| 2026-05-09 17:38 | -15.44027 | -148.93941 | 3960 ft | 98 kts | 26° |
| 2026-05-09 17:39 | -15.42748 | -148.93433 | 3967 ft | 98 kts | 26° |
| 2026-05-09 17:39 | -15.42097 | -148.93173 | 3967 ft | 99 kts | 26° |
| 2026-05-09 17:39 | -15.41453 | -148.92917 | 3967 ft | 99 kts | 26° |
| 2026-05-09 17:39 | -15.40813 | -148.92662 | 3968 ft | 98 kts | 26° |
| 2026-05-09 17:40 | -15.40166 | -148.92404 | 3968 ft | 98 kts | 26° |
| 2026-05-09 17:40 | -15.39522 | -148.92151 | 3968 ft | 98 kts | 26° |
| 2026-05-09 17:40 | -15.38886 | -148.91898 | 3968 ft | 98 kts | 26° |
| 2026-05-09 17:40 | -15.38245 | -148.91644 | 3968 ft | 98 kts | 26° |
| 2026-05-09 17:41 | -15.37607 | -148.91389 | 3968 ft | 98 kts | 26° |
| 2026-05-09 17:41 | -15.36965 | -148.91136 | 3967 ft | 98 kts | 26° |
| 2026-05-09 17:41 | -15.36327 | -148.90881 | 3968 ft | 98 kts | 26° |
| 2026-05-09 17:41 | -15.35681 | -148.90624 | 3967 ft | 98 kts | 26° |
| 2026-05-09 17:42 | -15.35040 | -148.90370 | 3967 ft | 99 kts | 26° |
| 2026-05-09 17:42 | -15.34399 | -148.90117 | 3967 ft | 99 kts | 26° |
| 2026-05-09 17:42 | -15.33752 | -148.89859 | 3967 ft | 99 kts | 26° |
| 2026-05-09 17:42 | -15.33100 | -148.89601 | 3966 ft | 98 kts | 26° |
| 2026-05-09 17:43 | -15.32464 | -148.89349 | 3966 ft | 98 kts | 26° |
| 2026-05-09 17:43 | -15.31818 | -148.89093 | 3966 ft | 98 kts | 26° |
| 2026-05-09 17:43 | -15.31185 | -148.88841 | 3966 ft | 98 kts | 26° |
| 2026-05-09 17:43 | -15.30538 | -148.88583 | 3966 ft | 98 kts | 26° |
| 2026-05-09 17:44 | -15.29899 | -148.88330 | 3966 ft | 98 kts | 26° |
| 2026-05-09 17:44 | -15.29257 | -148.88075 | 3966 ft | 98 kts | 26° |
| 2026-05-09 17:44 | -15.28616 | -148.87822 | 3966 ft | 98 kts | 26° |
| 2026-05-09 17:44 | -15.27976 | -148.87567 | 3966 ft | 98 kts | 26° |
| 2026-05-09 17:45 | -15.27341 | -148.87317 | 3966 ft | 98 kts | 26° |
| 2026-05-09 17:45 | -15.26699 | -148.87062 | 3966 ft | 98 kts | 26° |
| 2026-05-09 17:45 | -15.26055 | -148.86806 | 3966 ft | 98 kts | 26° |
| 2026-05-09 17:45 | -15.25407 | -148.86549 | 3966 ft | 99 kts | 26° |
| 2026-05-09 17:46 | -15.24765 | -148.86295 | 3966 ft | 99 kts | 27° |
| 2026-05-09 17:46 | -15.24115 | -148.86037 | 3966 ft | 99 kts | 26° |
| 2026-05-09 17:46 | -15.23476 | -148.85783 | 3966 ft | 99 kts | 26° |
| 2026-05-09 17:46 | -15.22831 | -148.85527 | 3966 ft | 98 kts | 26° |
| 2026-05-09 17:47 | -15.22186 | -148.85271 | 3966 ft | 98 kts | 26° |
| 2026-05-09 17:47 | -15.21545 | -148.85017 | 3966 ft | 98 kts | 26° |
| 2026-05-09 17:47 | -15.20902 | -148.84764 | 3966 ft | 98 kts | 26° |
| 2026-05-09 17:47 | -15.20259 | -148.84508 | 3966 ft | 98 kts | 26° |
| 2026-05-09 17:48 | -15.19624 | -148.84256 | 3966 ft | 98 kts | 26° |
| 2026-05-09 17:48 | -15.18982 | -148.84001 | 3966 ft | 98 kts | 26° |
| 2026-05-09 17:48 | -15.18336 | -148.83746 | 3966 ft | 99 kts | 26° |
| 2026-05-09 17:48 | -15.17690 | -148.83490 | 3966 ft | 99 kts | 26° |
| 2026-05-09 17:49 | -15.17040 | -148.83234 | 3966 ft | 99 kts | 26° |
| 2026-05-09 17:49 | -15.16392 | -148.82976 | 3966 ft | 99 kts | 27° |
| 2026-05-09 17:49 | -15.15743 | -148.82719 | 3966 ft | 99 kts | 26° |
| 2026-05-09 17:49 | -15.15099 | -148.82463 | 3966 ft | 99 kts | 26° |
| 2026-05-09 17:50 | -15.14456 | -148.82208 | 3966 ft | 98 kts | 26° |
| 2026-05-09 17:50 | -15.13172 | -148.81700 | 3966 ft | 98 kts | 26° |
| 2026-05-09 17:50 | -15.12745 | -148.81531 | 3966 ft | 98 kts | 26° |
| 2026-05-09 17:51 | -15.11885 | -148.81190 | 3966 ft | 98 kts | 26° |
| 2026-05-09 17:51 | -15.11247 | -148.80936 | 3966 ft | 98 kts | 26° |
| 2026-05-09 17:51 | -15.10604 | -148.80682 | 3966 ft | 98 kts | 26° |
| 2026-05-09 17:51 | -15.09967 | -148.80431 | 3966 ft | 98 kts | 26° |
| 2026-05-09 17:52 | -15.09315 | -148.80174 | 3966 ft | 98 kts | 26° |
| 2026-05-09 17:52 | -15.08676 | -148.79919 | 3966 ft | 98 kts | 26° |
| 2026-05-09 17:52 | -15.08036 | -148.79666 | 3966 ft | 98 kts | 26° |
| 2026-05-09 17:52 | -15.07396 | -148.79414 | 3966 ft | 98 kts | 27° |
| 2026-05-09 17:53 | -15.06752 | -148.79160 | 3964 ft | 98 kts | 27° |
| 2026-05-09 17:53 | -15.06107 | -148.78902 | 3925 ft | 102 kts | 26° |
| 2026-05-09 17:53 | -15.05426 | -148.78636 | 3743 ft | 106 kts | 24° |
| 2026-05-09 17:53 | -15.04734 | -148.78369 | 3581 ft | 105 kts | 24° |
| 2026-05-09 17:54 | -15.04055 | -148.78110 | 3416 ft | 103 kts | 24° |
| 2026-05-09 17:54 | -15.03382 | -148.77858 | 3260 ft | 102 kts | 22° |
| 2026-05-09 17:54 | -15.02698 | -148.77624 | 3100 ft | 102 kts | 22° |
| 2026-05-09 17:54 | -15.02028 | -148.77397 | 2938 ft | 102 kts | 22° |
| 2026-05-09 17:55 | -15.01343 | -148.77165 | 2780 ft | 102 kts | 22° |
| 2026-05-09 17:55 | -15.00672 | -148.76939 | 2627 ft | 102 kts | 22° |
| 2026-05-09 17:55 | -14.99987 | -148.76709 | 2470 ft | 103 kts | 22° |
| 2026-05-09 17:55 | -14.99298 | -148.76477 | 2308 ft | 104 kts | 22° |
| 2026-05-09 17:56 | -14.98609 | -148.76256 | 2154 ft | 104 kts | 22° |
| 2026-05-09 17:56 | -14.97922 | -148.76007 | 1987 ft | 104 kts | 26° |
| 2026-05-09 17:56 | -14.97250 | -148.75723 | 1835 ft | 103 kts | 26° |
| 2026-05-09 17:57 | -14.95926 | -148.75120 | 1509 ft | 103 kts | 29° |
| 2026-05-09 17:57 | -14.95283 | -148.74799 | 1338 ft | 101 kts | 29° |
| 2026-05-09 17:57 | -14.94651 | -148.74484 | 1176 ft | 99 kts | 28° |
| 2026-05-09 17:57 | -14.94037 | -148.74171 | 1018 ft | 98 kts | 28° |
| 2026-05-09 17:58 | -14.93441 | -148.73889 | 975 ft | 89 kts | 27° |
| 2026-05-09 17:58 | -14.92871 | -148.73674 | 968 ft | 83 kts | 25° |
| 2026-05-09 17:58 | -14.92357 | -148.73451 | 955 ft | 76 kts | 35° |
| 2026-05-09 17:58 | -14.91889 | -148.73206 | 966 ft | 74 kts | 33° |
| 2026-05-09 17:59 | -14.91423 | -148.72974 | 953 ft | 74 kts | 31° |
| 2026-05-09 17:59 | -14.90944 | -148.72719 | 854 ft | 81 kts | 33° |
| 2026-05-09 17:59 | -14.90417 | -148.72447 | 691 ft | 90 kts | 28° |
| 2026-05-09 17:59 | -14.89810 | -148.72214 | 505 ft | 93 kts | 19° |
| 2026-05-09 18:00 | -14.89189 | -148.72038 | 336 ft | 88 kts | 17° |
| 2026-05-09 18:00 | -14.88628 | -148.71863 | 238 ft | 78 kts | 24° |
| 2026-05-09 18:00 | -14.88151 | -148.71696 | 154 ft | 68 kts | 21° |
| 2026-05-09 18:00 | -14.87723 | -148.71552 | 57 ft | 62 kts | 19° |
| 2026-05-09 18:01 | -14.87420 | -148.71457 | 35 ft | 26 kts | 32° |
| 2026-05-09 18:01 | -14.87311 | -148.71419 | 34 ft | 7 kts | 41° |
| 2026-05-09 18:01 | -14.87230 | -148.71390 | 25 ft | 12 kts | 41° |
| 2026-05-09 18:01 | -14.87126 | -148.71361 | 29 ft | 14 kts | 34° |
| 2026-05-09 18:02 | -14.87032 | -148.71330 | 31 ft | 18 kts | 46° |
| 2026-05-09 18:02 | -14.86969 | -148.71269 | 35 ft | 12 kts | 106° |
| 2026-05-09 18:02 | -14.86970 | -148.71182 | 37 ft | 7 kts | 103° |
| 2026-05-09 18:02 | -14.86976 | -148.71172 | 18 ft | 0 kts | 129° |
| 2026-05-09 18:40 | -14.87355 | -148.70489 | 308 ft | 86 kts | 84° |
| 2026-05-09 18:40 | -14.86975 | -148.69960 | 335 ft | 102 kts | 35° |
| 2026-05-09 18:40 | -14.86369 | -148.69560 | 353 ft | 105 kts | 47° |
| 2026-05-09 18:41 | -14.86115 | -148.68890 | 366 ft | 101 kts | 85° |
| 2026-05-09 18:41 | -14.86400 | -148.68228 | 400 ft | 106 kts | 125° |
| 2026-05-09 18:41 | -14.87013 | -148.67795 | 487 ft | 104 kts | 139° |
| 2026-05-09 18:41 | -14.87613 | -148.67394 | 579 ft | 102 kts | 137° |
| 2026-05-09 18:42 | -14.88167 | -148.66937 | 668 ft | 99 kts | 130° |
| 2026-05-09 18:42 | -14.88652 | -148.66455 | 761 ft | 95 kts | 126° |
| 2026-05-09 18:42 | -14.89099 | -148.65945 | 876 ft | 97 kts | 124° |
| 2026-05-09 18:42 | -14.89534 | -148.65395 | 969 ft | 99 kts | 122° |
| 2026-05-09 18:43 | -14.89954 | -148.64815 | 1061 ft | 100 kts | 120° |
| 2026-05-09 18:43 | -14.90349 | -148.64227 | 1156 ft | 101 kts | 118° |
| 2026-05-09 18:43 | -14.90740 | -148.63615 | 1254 ft | 102 kts | 118° |
| 2026-05-09 18:43 | -14.91122 | -148.62991 | 1344 ft | 102 kts | 116° |
| 2026-05-09 18:44 | -14.91495 | -148.62361 | 1432 ft | 101 kts | 115° |
| 2026-05-09 18:44 | -14.91854 | -148.61729 | 1460 ft | 104 kts | 114° |
| 2026-05-09 18:44 | -14.92225 | -148.61064 | 1462 ft | 106 kts | 114° |
| 2026-05-09 18:44 | -14.92592 | -148.60397 | 1464 ft | 107 kts | 113° |
| 2026-05-09 18:45 | -14.92952 | -148.59731 | 1465 ft | 106 kts | 113° |
| 2026-05-09 18:45 | -14.93316 | -148.59053 | 1468 ft | 107 kts | 113° |
| 2026-05-09 18:45 | -14.93678 | -148.58377 | 1468 ft | 107 kts | 113° |
| 2026-05-09 18:45 | -14.94035 | -148.57706 | 1468 ft | 107 kts | 113° |
| 2026-05-09 18:46 | -14.94396 | -148.57025 | 1468 ft | 107 kts | 113° |
| 2026-05-09 18:46 | -14.94751 | -148.56351 | 1469 ft | 108 kts | 113° |
| 2026-05-09 18:46 | -14.95114 | -148.55662 | 1467 ft | 109 kts | 113° |
| 2026-05-09 18:46 | -14.95482 | -148.54967 | 1467 ft | 108 kts | 113° |
| 2026-05-09 18:47 | -14.95839 | -148.54289 | 1467 ft | 108 kts | 112° |
| 2026-05-09 18:47 | -14.96200 | -148.53601 | 1467 ft | 108 kts | 112° |
| 2026-05-09 18:47 | -14.96558 | -148.52918 | 1468 ft | 108 kts | 113° |
| 2026-05-09 18:47 | -14.96914 | -148.52239 | 1464 ft | 107 kts | 113° |
| 2026-05-09 18:48 | -14.97272 | -148.51555 | 1466 ft | 107 kts | 113° |
| 2026-05-09 18:48 | -14.97629 | -148.50874 | 1467 ft | 107 kts | 113° |
| 2026-05-09 18:48 | -14.97980 | -148.50203 | 1463 ft | 107 kts | 113° |
| 2026-05-09 18:48 | -14.98341 | -148.49518 | 1467 ft | 107 kts | 113° |
| 2026-05-09 18:49 | -14.98694 | -148.48842 | 1467 ft | 108 kts | 113° |
| 2026-05-09 18:49 | -14.99057 | -148.48149 | 1465 ft | 109 kts | 113° |
| 2026-05-09 18:49 | -14.99419 | -148.47459 | 1464 ft | 109 kts | 112° |
| 2026-05-09 18:49 | -14.99781 | -148.46767 | 1466 ft | 109 kts | 112° |
| 2026-05-09 18:50 | -15.00143 | -148.46075 | 1459 ft | 109 kts | 112° |
| 2026-05-09 18:50 | -15.00507 | -148.45383 | 1457 ft | 108 kts | 112° |
| 2026-05-09 18:50 | -15.00864 | -148.44701 | 1457 ft | 108 kts | 112° |
| 2026-05-09 18:50 | -15.01224 | -148.44011 | 1454 ft | 108 kts | 112° |
| 2026-05-09 18:51 | -15.01579 | -148.43330 | 1451 ft | 108 kts | 112° |
| 2026-05-09 18:51 | -15.01933 | -148.42651 | 1450 ft | 107 kts | 112° |
| 2026-05-09 18:51 | -15.02288 | -148.41972 | 1447 ft | 107 kts | 113° |
| 2026-05-09 18:51 | -15.02644 | -148.41292 | 1451 ft | 107 kts | 112° |
| 2026-05-09 18:52 | -15.03001 | -148.40607 | 1449 ft | 108 kts | 113° |
| 2026-05-09 18:52 | -15.03360 | -148.39923 | 1445 ft | 108 kts | 114° |
| 2026-05-09 18:52 | -15.03717 | -148.39239 | 1450 ft | 108 kts | 114° |
| 2026-05-09 18:52 | -15.04079 | -148.38550 | 1447 ft | 108 kts | 113° |
| 2026-05-09 18:53 | -15.04436 | -148.37868 | 1448 ft | 108 kts | 113° |
| 2026-05-09 18:53 | -15.04795 | -148.37183 | 1449 ft | 107 kts | 112° |
| 2026-05-09 18:53 | -15.05152 | -148.36497 | 1447 ft | 108 kts | 113° |
| 2026-05-09 18:53 | -15.05509 | -148.35818 | 1448 ft | 107 kts | 112° |
| 2026-05-09 18:54 | -15.05865 | -148.35135 | 1449 ft | 107 kts | 112° |
| 2026-05-09 18:54 | -15.06227 | -148.34448 | 1395 ft | 112 kts | 114° |
| 2026-05-09 18:54 | -15.06868 | -148.33931 | 1308 ft | 120 kts | 142° |
| 2026-05-09 18:54 | -15.07597 | -148.33514 | 1234 ft | 118 kts | 141° |
| 2026-05-09 18:55 | -15.08301 | -148.33130 | 1178 ft | 111 kts | 142° |
| 2026-05-09 18:55 | -15.08979 | -148.32753 | 1125 ft | 109 kts | 142° |
| 2026-05-09 18:55 | -15.09646 | -148.32384 | 1071 ft | 108 kts | 142° |
| 2026-05-09 18:55 | -15.10320 | -148.32011 | 1019 ft | 108 kts | 141° |
| 2026-05-09 18:56 | -15.10970 | -148.31633 | 966 ft | 105 kts | 140° |
| 2026-05-09 18:56 | -15.11546 | -148.31223 | 972 ft | 98 kts | 131° |
| 2026-05-09 18:56 | -15.12052 | -148.30757 | 969 ft | 95 kts | 126° |
| 2026-05-09 18:56 | -15.12522 | -148.30278 | 963 ft | 93 kts | 123° |
| 2026-05-09 18:57 | -15.12896 | -148.29748 | 965 ft | 89 kts | 112° |
| 2026-05-09 18:57 | -15.13136 | -148.29166 | 965 ft | 87 kts | 100° |
| 2026-05-09 18:57 | -15.13249 | -148.28543 | 962 ft | 87 kts | 92° |
| 2026-05-09 18:57 | -15.13304 | -148.27928 | 952 ft | 85 kts | 87° |
| 2026-05-09 18:58 | -15.13106 | -148.27324 | 682 ft | 103 kts | 65° |
| 2026-05-09 18:58 | -15.12885 | -148.26622 | 417 ft | 98 kts | 72° |
| 2026-05-09 18:58 | -15.12706 | -148.26006 | 333 ft | 86 kts | 67° |
| 2026-05-09 18:58 | -15.12555 | -148.25423 | 234 ft | 75 kts | 75° |
| 2026-05-09 18:59 | -15.12440 | -148.24930 | 199 ft | 64 kts | 73° |
| 2026-05-09 18:59 | -15.12315 | -148.24519 | 172 ft | 54 kts | 71° |
| 2026-05-09 18:59 | -15.12241 | -148.24193 | 150 ft | 37 kts | 73° |
| 2026-05-09 18:59 | -15.12173 | -148.23900 | 104 ft | 46 kts | 72° |
| 2026-05-09 19:00 | -15.12102 | -148.23598 | 73 ft | 33 kts | 69° |
| 2026-05-09 19:00 | -15.12025 | -148.23381 | 26 ft | 7 kts | 63° |
| 2026-05-09 19:00 | -15.11979 | -148.23387 | 20 ft | 5 kts | 38° |
| 2026-05-09 19:01 | -15.11959 | -148.23375 | 51 ft | 7 kts | 40° |
| 2026-05-09 19:01 | -15.11944 | -148.23360 | 68 ft | 7 kts | 59° |
| 2026-05-09 19:01 | -15.11931 | -148.23363 | 15 ft | 0 kts | 52° |
| 2026-05-09 19:16 | -15.11943 | -148.23329 | 72 ft | 22 kts | 114° |
| 2026-05-09 19:16 | -15.12177 | -148.23126 | 182 ft | 62 kts | 126° |
| 2026-05-09 19:16 | -15.12410 | -148.22749 | 406 ft | 69 kts | 101° |
| 2026-05-09 19:17 | -15.12227 | -148.22201 | 400 ft | 95 kts | 49° |
| 2026-05-09 19:17 | -15.11635 | -148.21876 | 475 ft | 103 kts | 34° |
| 2026-05-09 19:17 | -15.10850 | -148.21872 | 425 ft | 122 kts | 341° |
| 2026-05-09 19:17 | -15.10072 | -148.22150 | 473 ft | 114 kts | 2° |
| 2026-05-09 19:18 | -15.09375 | -148.21918 | 500 ft | 103 kts | 39° |
| 2026-05-09 19:18 | -15.09038 | -148.21303 | 536 ft | 98 kts | 78° |
| 2026-05-09 19:18 | -15.09134 | -148.20618 | 606 ft | 95 kts | 97° |
| 2026-05-09 19:18 | -15.09281 | -148.19951 | 698 ft | 94 kts | 98° |
| 2026-05-09 19:19 | -15.09423 | -148.19304 | 792 ft | 93 kts | 99° |
| 2026-05-09 19:19 | -15.09534 | -148.18637 | 890 ft | 92 kts | 94° |
| 2026-05-09 19:19 | -15.09581 | -148.17978 | 955 ft | 94 kts | 90° |
| 2026-05-09 19:19 | -15.09578 | -148.17279 | 964 ft | 98 kts | 86° |
| 2026-05-09 19:20 | -15.09530 | -148.16565 | 967 ft | 100 kts | 84° |
| 2026-05-09 19:20 | -15.09447 | -148.15846 | 968 ft | 101 kts | 81° |
| 2026-05-09 19:20 | -15.09334 | -148.15117 | 966 ft | 101 kts | 79° |
| 2026-05-09 19:20 | -15.09204 | -148.14420 | 965 ft | 97 kts | 78° |
| 2026-05-09 19:21 | -15.09059 | -148.13731 | 958 ft | 97 kts | 77° |
| 2026-05-09 19:21 | -15.08905 | -148.13054 | 955 ft | 96 kts | 76° |
| 2026-05-09 19:21 | -15.08746 | -148.12387 | 952 ft | 95 kts | 76° |
| 2026-05-09 19:21 | -15.08583 | -148.11728 | 950 ft | 96 kts | 75° |
| 2026-05-09 19:22 | -15.08409 | -148.11053 | 950 ft | 96 kts | 75° |
| 2026-05-09 19:22 | -15.08234 | -148.10387 | 949 ft | 96 kts | 75° |
| 2026-05-09 19:22 | -15.08056 | -148.09721 | 949 ft | 96 kts | 74° |
| 2026-05-09 19:22 | -15.07873 | -148.09053 | 948 ft | 96 kts | 74° |
| 2026-05-09 19:23 | -15.07688 | -148.08385 | 946 ft | 96 kts | 74° |
| 2026-05-09 19:23 | -15.07501 | -148.07715 | 950 ft | 95 kts | 74° |
| 2026-05-09 19:23 | -15.07317 | -148.07054 | 949 ft | 95 kts | 74° |
| 2026-05-09 19:23 | -15.07132 | -148.06401 | 950 ft | 95 kts | 73° |
| 2026-05-09 19:24 | -15.06945 | -148.05736 | 950 ft | 95 kts | 73° |
| 2026-05-09 19:24 | -15.06757 | -148.05075 | 952 ft | 95 kts | 74° |
| 2026-05-09 19:24 | -15.06571 | -148.04419 | 950 ft | 95 kts | 74° |
| 2026-05-09 19:24 | -15.06386 | -148.03758 | 950 ft | 95 kts | 73° |
| 2026-05-09 19:25 | -15.06196 | -148.03091 | 951 ft | 96 kts | 73° |
| 2026-05-09 19:25 | -15.06008 | -148.02428 | 950 ft | 96 kts | 72° |
| 2026-05-09 19:25 | -15.05819 | -148.01769 | 949 ft | 96 kts | 73° |
| 2026-05-09 19:25 | -15.05626 | -148.01094 | 947 ft | 96 kts | 73° |
| 2026-05-09 19:26 | -15.05438 | -148.00438 | 948 ft | 95 kts | 73° |
| 2026-05-09 19:26 | -15.05249 | -147.99779 | 948 ft | 96 kts | 73° |
| 2026-05-09 19:26 | -15.05058 | -147.99114 | 947 ft | 95 kts | 73° |
| 2026-05-09 19:26 | -15.04870 | -147.98459 | 945 ft | 95 kts | 73° |
| 2026-05-09 19:27 | -15.04682 | -147.97798 | 949 ft | 95 kts | 73° |
| 2026-05-09 19:27 | -15.04494 | -147.97145 | 949 ft | 95 kts | 74° |
| 2026-05-09 19:27 | -15.04304 | -147.96481 | 946 ft | 96 kts | 74° |
| 2026-05-09 19:27 | -15.04114 | -147.95813 | 948 ft | 96 kts | 74° |
| 2026-05-09 19:28 | -15.03926 | -147.95158 | 948 ft | 96 kts | 73° |
| 2026-05-09 19:28 | -15.03734 | -147.94485 | 947 ft | 96 kts | 74° |
| 2026-05-09 19:28 | -15.03544 | -147.93820 | 949 ft | 96 kts | 74° |
| 2026-05-09 19:28 | -15.03354 | -147.93159 | 951 ft | 97 kts | 73° |
| 2026-05-09 19:29 | -15.03162 | -147.92485 | 949 ft | 97 kts | 74° |
| 2026-05-09 19:29 | -15.02967 | -147.91811 | 947 ft | 97 kts | 73° |
| 2026-05-09 19:29 | -15.02776 | -147.91144 | 944 ft | 96 kts | 73° |
| 2026-05-09 19:29 | -15.02589 | -147.90488 | 949 ft | 96 kts | 73° |
| 2026-05-09 19:30 | -15.02397 | -147.89825 | 947 ft | 96 kts | 73° |
| 2026-05-09 19:30 | -15.02206 | -147.89160 | 948 ft | 95 kts | 74° |
| 2026-05-09 19:30 | -15.02017 | -147.88500 | 950 ft | 95 kts | 74° |
| 2026-05-09 19:30 | -15.01827 | -147.87839 | 952 ft | 95 kts | 74° |
| 2026-05-09 19:31 | -15.01639 | -147.87180 | 956 ft | 95 kts | 74° |
| 2026-05-09 19:31 | -15.01450 | -147.86519 | 960 ft | 96 kts | 74° |
| 2026-05-09 19:31 | -15.01261 | -147.85860 | 965 ft | 96 kts | 73° |
| 2026-05-09 19:31 | -15.01071 | -147.85194 | 966 ft | 96 kts | 73° |
| 2026-05-09 19:32 | -15.00880 | -147.84529 | 967 ft | 97 kts | 73° |
| 2026-05-09 19:32 | -15.00688 | -147.83859 | 967 ft | 97 kts | 73° |
| 2026-05-09 19:32 | -15.00496 | -147.83194 | 968 ft | 96 kts | 73° |
| 2026-05-09 19:32 | -15.00306 | -147.82532 | 963 ft | 95 kts | 73° |
| 2026-05-09 19:33 | -15.00117 | -147.81876 | 968 ft | 95 kts | 73° |
| 2026-05-09 19:33 | -14.99927 | -147.81215 | 969 ft | 96 kts | 73° |
| 2026-05-09 19:33 | -14.99737 | -147.80556 | 965 ft | 96 kts | 74° |
| 2026-05-09 19:33 | -14.99546 | -147.79894 | 966 ft | 96 kts | 73° |
| 2026-05-09 19:34 | -14.99357 | -147.79231 | 968 ft | 96 kts | 74° |
| 2026-05-09 19:34 | -14.99166 | -147.78569 | 964 ft | 96 kts | 73° |
| 2026-05-09 19:34 | -14.98973 | -147.77893 | 965 ft | 97 kts | 73° |
| 2026-05-09 19:34 | -14.98733 | -147.77245 | 942 ft | 103 kts | 51° |
| 2026-05-09 19:35 | -14.98191 | -147.76785 | 964 ft | 100 kts | 43° |
| 2026-05-09 19:35 | -14.97642 | -147.76334 | 965 ft | 99 kts | 42° |
| 2026-05-09 19:35 | -14.97115 | -147.75897 | 965 ft | 96 kts | 43° |
| 2026-05-09 19:35 | -14.96584 | -147.75467 | 967 ft | 95 kts | 43° |
| 2026-05-09 19:36 | -14.96063 | -147.75044 | 966 ft | 94 kts | 43° |
| 2026-05-09 19:36 | -14.95555 | -147.74618 | 967 ft | 94 kts | 45° |
| 2026-05-09 19:36 | -14.95098 | -147.74136 | 959 ft | 92 kts | 53° |
| 2026-05-09 19:36 | -14.94730 | -147.73601 | 961 ft | 90 kts | 61° |
| 2026-05-09 19:37 | -14.94419 | -147.73038 | 963 ft | 89 kts | 64° |
| 2026-05-09 19:37 | -14.94188 | -147.72450 | 956 ft | 89 kts | 75° |
| 2026-05-09 19:37 | -14.94079 | -147.71819 | 965 ft | 88 kts | 81° |
| 2026-05-09 19:37 | -14.94050 | -147.71187 | 956 ft | 89 kts | 92° |
| 2026-05-09 19:38 | -14.94181 | -147.70538 | 709 ft | 101 kts | 100° |
| 2026-05-09 19:38 | -14.94335 | -147.69875 | 526 ft | 92 kts | 94° |
| 2026-05-09 19:38 | -14.94502 | -147.69264 | 393 ft | 83 kts | 100° |
| 2026-05-09 19:38 | -14.94673 | -147.68735 | 326 ft | 73 kts | 97° |
| 2026-05-09 19:39 | -14.94798 | -147.68262 | 262 ft | 64 kts | 98° |
| 2026-05-09 19:39 | -14.94929 | -147.67847 | 207 ft | 56 kts | 97° |
| 2026-05-09 19:39 | -14.95032 | -147.67473 | 134 ft | 50 kts | 94° |
| 2026-05-09 19:39 | -14.95130 | -147.67154 | 82 ft | 40 kts | 94° |
| 2026-05-09 19:40 | -14.95200 | -147.66921 | 40 ft | 24 kts | 88° |
| 2026-05-09 19:40 | -14.95232 | -147.66785 | 34 ft | 17 kts | 93° |
| 2026-05-09 19:40 | -14.95267 | -147.66675 | 28 ft | 17 kts | 96° |
| 2026-05-09 19:40 | -14.95300 | -147.66562 | 31 ft | 14 kts | 99° |
| 2026-05-09 19:41 | -14.95326 | -147.66443 | 28 ft | 21 kts | 96° |
| 2026-05-09 19:41 | -14.95369 | -147.66310 | 28 ft | 20 kts | 99° |
| 2026-05-09 19:41 | -14.95416 | -147.66151 | 36 ft | 24 kts | 95° |
| 2026-05-09 19:41 | -14.95454 | -147.66003 | 47 ft | 19 kts | 96° |
| 2026-05-09 19:42 | -14.95490 | -147.65871 | 43 ft | 22 kts | 95° |
| 2026-05-09 19:42 | -14.95580 | -147.65788 | 44 ft | 13 kts | 189° |
| 2026-05-09 19:42 | -14.95646 | -147.65836 | 12 ft | 5 kts | 224° |
| 2026-05-09 19:42 | -14.95657 | -147.65843 | 12 ft | 0 kts | 199° |
| 2026-05-09 20:15 | -14.95662 | -147.65849 | 35 ft | 3 kts | 208° |
| 2026-05-09 20:15 | -14.95774 | -147.65797 | 140 ft | 42 kts | 125° |
| 2026-05-09 20:15 | -14.96004 | -147.65512 | 359 ft | 63 kts | 104° |
| 2026-05-09 20:15 | -14.96063 | -147.64928 | 294 ft | 93 kts | 81° |
| 2026-05-09 20:16 | -14.95860 | -147.64273 | 327 ft | 99 kts | 56° |
| 2026-05-09 20:16 | -14.95707 | -147.63573 | 295 ft | 102 kts | 90° |
| 2026-05-09 20:16 | -14.95952 | -147.62889 | 349 ft | 100 kts | 105° |
| 2026-05-09 20:16 | -14.96214 | -147.62236 | 435 ft | 97 kts | 104° |
| 2026-05-09 20:17 | -14.96460 | -147.61580 | 535 ft | 98 kts | 104° |
| 2026-05-09 20:17 | -14.96700 | -147.60906 | 620 ft | 101 kts | 103° |
| 2026-05-09 20:17 | -14.96932 | -147.60217 | 709 ft | 101 kts | 102° |
| 2026-05-09 20:17 | -14.97159 | -147.59523 | 797 ft | 101 kts | 102° |
| 2026-05-09 20:18 | -14.97376 | -147.58835 | 882 ft | 101 kts | 101° |
| 2026-05-09 20:18 | -14.97591 | -147.58133 | 947 ft | 103 kts | 101° |
| 2026-05-09 20:18 | -14.97807 | -147.57413 | 957 ft | 106 kts | 101° |
| 2026-05-09 20:18 | -14.98022 | -147.56679 | 961 ft | 108 kts | 100° |
| 2026-05-09 20:19 | -14.98240 | -147.55933 | 958 ft | 108 kts | 100° |
| 2026-05-09 20:19 | -14.98456 | -147.55193 | 963 ft | 108 kts | 103° |
| 2026-05-09 20:19 | -14.98678 | -147.54450 | 966 ft | 108 kts | 103° |
| 2026-05-09 20:19 | -14.98901 | -147.53696 | 963 ft | 109 kts | 103° |
| 2026-05-09 20:20 | -14.99119 | -147.52948 | 961 ft | 109 kts | 103° |
| 2026-05-09 20:20 | -14.99339 | -147.52193 | 958 ft | 109 kts | 103° |
| 2026-05-09 20:20 | -14.99554 | -147.51445 | 958 ft | 109 kts | 103° |
| 2026-05-09 20:20 | -14.99771 | -147.50690 | 958 ft | 109 kts | 103° |
| 2026-05-09 20:21 | -14.99985 | -147.49944 | 956 ft | 108 kts | 103° |
| 2026-05-09 20:21 | -15.00199 | -147.49191 | 957 ft | 108 kts | 102° |
| 2026-05-09 20:21 | -15.00410 | -147.48445 | 959 ft | 108 kts | 103° |
| 2026-05-09 20:21 | -15.00623 | -147.47693 | 959 ft | 109 kts | 102° |
| 2026-05-09 20:22 | -15.00837 | -147.46938 | 958 ft | 109 kts | 103° |
| 2026-05-09 20:22 | -15.01049 | -147.46185 | 956 ft | 109 kts | 103° |
| 2026-05-09 20:22 | -15.01263 | -147.45425 | 955 ft | 110 kts | 103° |
| 2026-05-09 20:22 | -15.01475 | -147.44678 | 953 ft | 109 kts | 103° |
| 2026-05-09 20:23 | -15.01689 | -147.43918 | 952 ft | 109 kts | 103° |
| 2026-05-09 20:23 | -15.01904 | -147.43162 | 950 ft | 109 kts | 103° |
| 2026-05-09 20:23 | -15.02115 | -147.42412 | 949 ft | 109 kts | 103° |
| 2026-05-09 20:23 | -15.02329 | -147.41656 | 949 ft | 109 kts | 103° |
| 2026-05-09 20:24 | -15.02543 | -147.40897 | 947 ft | 108 kts | 103° |
| 2026-05-09 20:24 | -15.02755 | -147.40144 | 946 ft | 108 kts | 103° |
| 2026-05-09 20:24 | -15.02965 | -147.39401 | 946 ft | 108 kts | 103° |
| 2026-05-09 20:24 | -15.03176 | -147.38650 | 947 ft | 108 kts | 103° |
| 2026-05-09 20:25 | -15.03386 | -147.37904 | 947 ft | 109 kts | 103° |
| 2026-05-09 20:25 | -15.03599 | -147.37152 | 949 ft | 109 kts | 103° |
| 2026-05-09 20:25 | -15.03813 | -147.36391 | 949 ft | 109 kts | 103° |
| 2026-05-09 20:25 | -15.04026 | -147.35635 | 945 ft | 109 kts | 103° |
| 2026-05-09 20:26 | -15.04238 | -147.34883 | 947 ft | 109 kts | 103° |
| 2026-05-09 20:26 | -15.04453 | -147.34122 | 946 ft | 109 kts | 102° |
| 2026-05-09 20:26 | -15.04667 | -147.33362 | 949 ft | 109 kts | 102° |
| 2026-05-09 20:26 | -15.04877 | -147.32614 | 948 ft | 109 kts | 102° |
| 2026-05-09 20:27 | -15.05091 | -147.31851 | 948 ft | 109 kts | 103° |
| 2026-05-09 20:27 | -15.05303 | -147.31100 | 948 ft | 109 kts | 103° |
| 2026-05-09 20:27 | -15.05517 | -147.30341 | 949 ft | 109 kts | 102° |
| 2026-05-09 20:27 | -15.05728 | -147.29590 | 951 ft | 109 kts | 103° |
| 2026-05-09 20:28 | -15.05943 | -147.28830 | 952 ft | 109 kts | 102° |
| 2026-05-09 20:28 | -15.06154 | -147.28079 | 952 ft | 109 kts | 102° |
| 2026-05-09 20:28 | -15.06367 | -147.27322 | 949 ft | 110 kts | 103° |
| 2026-05-09 20:29 | -15.06795 | -147.25797 | 949 ft | 110 kts | 103° |
| 2026-05-09 20:29 | -15.07006 | -147.25043 | 949 ft | 110 kts | 102° |
| 2026-05-09 20:29 | -15.07221 | -147.24280 | 950 ft | 110 kts | 103° |
| 2026-05-09 20:29 | -15.07436 | -147.23518 | 946 ft | 110 kts | 102° |
| 2026-05-09 20:30 | -15.07650 | -147.22754 | 944 ft | 109 kts | 102° |
| 2026-05-09 20:30 | -15.07860 | -147.22008 | 951 ft | 109 kts | 102° |
| 2026-05-09 20:30 | -15.08073 | -147.21252 | 949 ft | 109 kts | 102° |
| 2026-05-09 20:30 | -15.08285 | -147.20497 | 949 ft | 109 kts | 103° |
| 2026-05-09 20:31 | -15.08497 | -147.19737 | 946 ft | 109 kts | 103° |
| 2026-05-09 20:31 | -15.08710 | -147.18980 | 947 ft | 109 kts | 102° |
| 2026-05-09 20:31 | -15.08921 | -147.18234 | 946 ft | 109 kts | 103° |
| 2026-05-09 20:31 | -15.09133 | -147.17476 | 948 ft | 109 kts | 103° |
| 2026-05-09 20:32 | -15.09346 | -147.16717 | 950 ft | 109 kts | 103° |
| 2026-05-09 20:32 | -15.09559 | -147.15956 | 950 ft | 110 kts | 103° |
| 2026-05-09 20:32 | -15.09772 | -147.15193 | 951 ft | 110 kts | 103° |
| 2026-05-09 20:32 | -15.09984 | -147.14441 | 948 ft | 109 kts | 103° |
| 2026-05-09 20:33 | -15.10198 | -147.13681 | 946 ft | 109 kts | 103° |
| 2026-05-09 20:33 | -15.10411 | -147.12924 | 948 ft | 109 kts | 102° |
| 2026-05-09 20:33 | -15.10620 | -147.12178 | 950 ft | 109 kts | 103° |
| 2026-05-09 20:33 | -15.10833 | -147.11420 | 949 ft | 109 kts | 102° |
| 2026-05-09 20:34 | -15.11046 | -147.10661 | 948 ft | 109 kts | 102° |
| 2026-05-09 20:34 | -15.11261 | -147.09901 | 948 ft | 109 kts | 103° |
| 2026-05-09 20:34 | -15.11475 | -147.09142 | 945 ft | 110 kts | 103° |
| 2026-05-09 20:34 | -15.11688 | -147.08391 | 944 ft | 110 kts | 103° |
| 2026-05-09 20:35 | -15.11903 | -147.07629 | 945 ft | 109 kts | 103° |
| 2026-05-09 20:35 | -15.12117 | -147.06868 | 949 ft | 110 kts | 102° |
| 2026-05-09 20:35 | -15.12327 | -147.06117 | 948 ft | 110 kts | 103° |
| 2026-05-09 20:35 | -15.12542 | -147.05351 | 946 ft | 109 kts | 102° |
| 2026-05-09 20:36 | -15.12753 | -147.04596 | 945 ft | 109 kts | 103° |
| 2026-05-09 20:36 | -15.12964 | -147.03841 | 947 ft | 109 kts | 103° |
| 2026-05-09 20:36 | -15.13175 | -147.03087 | 948 ft | 109 kts | 103° |
| 2026-05-09 20:36 | -15.13385 | -147.02338 | 948 ft | 109 kts | 103° |
| 2026-05-09 20:37 | -15.13598 | -147.01581 | 946 ft | 109 kts | 103° |
| 2026-05-09 20:37 | -15.13811 | -147.00821 | 948 ft | 109 kts | 103° |
| 2026-05-09 20:37 | -15.14024 | -147.00061 | 947 ft | 109 kts | 102° |
| 2026-05-09 20:37 | -15.14234 | -146.99309 | 948 ft | 109 kts | 103° |
| 2026-05-09 20:38 | -15.14447 | -146.98549 | 946 ft | 109 kts | 103° |
| 2026-05-09 20:38 | -15.14660 | -146.97788 | 946 ft | 110 kts | 102° |
| 2026-05-09 20:38 | -15.14871 | -146.97031 | 947 ft | 110 kts | 103° |
| 2026-05-09 20:38 | -15.15085 | -146.96266 | 947 ft | 110 kts | 103° |
| 2026-05-09 20:39 | -15.15297 | -146.95508 | 944 ft | 109 kts | 103° |
| 2026-05-09 20:39 | -15.15509 | -146.94748 | 946 ft | 109 kts | 102° |
| 2026-05-09 20:39 | -15.15720 | -146.93993 | 947 ft | 109 kts | 102° |
| 2026-05-09 20:39 | -15.15933 | -146.93234 | 948 ft | 109 kts | 103° |
| 2026-05-09 20:40 | -15.16143 | -146.92484 | 947 ft | 109 kts | 103° |
| 2026-05-09 20:40 | -15.16355 | -146.91722 | 948 ft | 110 kts | 103° |
| 2026-05-09 20:40 | -15.16571 | -146.90951 | 947 ft | 111 kts | 103° |
| 2026-05-09 20:40 | -15.16789 | -146.90173 | 949 ft | 112 kts | 103° |
| 2026-05-09 20:41 | -15.17003 | -146.89409 | 948 ft | 112 kts | 103° |
| 2026-05-09 20:41 | -15.17221 | -146.88631 | 948 ft | 112 kts | 103° |
| 2026-05-09 20:41 | -15.17437 | -146.87854 | 951 ft | 112 kts | 103° |
| 2026-05-09 20:41 | -15.17656 | -146.87073 | 950 ft | 112 kts | 103° |
| 2026-05-09 20:42 | -15.17870 | -146.86305 | 948 ft | 112 kts | 103° |
| 2026-05-09 20:42 | -15.18090 | -146.85521 | 950 ft | 112 kts | 103° |
| 2026-05-09 20:42 | -15.18306 | -146.84743 | 952 ft | 112 kts | 103° |
| 2026-05-09 20:42 | -15.18521 | -146.83972 | 960 ft | 112 kts | 103° |
| 2026-05-09 20:43 | -15.18742 | -146.83180 | 958 ft | 114 kts | 103° |
| 2026-05-09 20:43 | -15.18962 | -146.82394 | 965 ft | 115 kts | 104° |
| 2026-05-09 20:43 | -15.19186 | -146.81593 | 966 ft | 115 kts | 103° |
| 2026-05-09 20:43 | -15.19412 | -146.80788 | 970 ft | 116 kts | 103° |
| 2026-05-09 20:44 | -15.19634 | -146.79993 | 965 ft | 114 kts | 103° |
| 2026-05-09 20:44 | -15.19853 | -146.79201 | 968 ft | 113 kts | 103° |
| 2026-05-09 20:44 | -15.20071 | -146.78421 | 969 ft | 113 kts | 103° |
| 2026-05-09 20:44 | -15.20289 | -146.77637 | 968 ft | 113 kts | 103° |
| 2026-05-09 20:45 | -15.20504 | -146.76865 | 967 ft | 112 kts | 103° |
| 2026-05-09 20:45 | -15.20723 | -146.76077 | 968 ft | 113 kts | 103° |
| 2026-05-09 20:45 | -15.20943 | -146.75290 | 984 ft | 115 kts | 104° |
| 2026-05-09 20:45 | -15.21172 | -146.74477 | 970 ft | 119 kts | 103° |
| 2026-05-09 20:46 | -15.21402 | -146.73654 | 966 ft | 120 kts | 103° |
| 2026-05-09 20:46 | -15.21634 | -146.72824 | 970 ft | 120 kts | 103° |
| 2026-05-09 20:46 | -15.21867 | -146.71986 | 967 ft | 120 kts | 103° |
| 2026-05-09 20:46 | -15.22094 | -146.71153 | 974 ft | 119 kts | 102° |
| 2026-05-09 20:47 | -15.22237 | -146.70308 | 961 ft | 118 kts | 95° |
| 2026-05-09 20:47 | -15.22294 | -146.69487 | 978 ft | 116 kts | 89° |
| 2026-05-09 20:47 | -15.22341 | -146.68684 | 1067 ft | 107 kts | 92° |
| 2026-05-09 20:47 | -15.22387 | -146.67892 | 1023 ft | 111 kts | 94° |
| 2026-05-09 20:48 | -15.22513 | -146.67104 | 955 ft | 114 kts | 96° |
| 2026-05-09 20:48 | -15.22684 | -146.66289 | 806 ft | 119 kts | 101° |
| 2026-05-09 20:48 | -15.22960 | -146.65494 | 726 ft | 114 kts | 107° |
| 2026-05-09 20:48 | -15.23320 | -146.64761 | 615 ft | 112 kts | 111° |
| 2026-05-09 20:49 | -15.23658 | -146.64032 | 514 ft | 111 kts | 110° |
| 2026-05-09 20:49 | -15.24008 | -146.63301 | 287 ft | 111 kts | 110° |
| 2026-05-09 20:49 | -15.24321 | -146.62662 | 165 ft | 86 kts | 103° |
| 2026-05-09 20:49 | -15.24534 | -146.62253 | 149 ft | 45 kts | 103° |
| 2026-05-09 20:50 | -15.24622 | -146.62131 | 152 ft | 9 kts | 104° |
| 2026-05-09 20:50 | -15.24626 | -146.62106 | 136 ft | 3 kts | 147° |
| 2026-05-09 20:50 | -15.24604 | -146.62089 | 115 ft | 5 kts | 127° |
| 2026-05-09 20:50 | -15.24606 | -146.62070 | 93 ft | 6 kts | 120° |
| 2026-05-09 20:51 | -15.24655 | -146.62062 | 47 ft | 5 kts | 165° |
| 2026-05-09 20:51 | -15.24679 | -146.62073 | 26 ft | 4 kts | 188° |
| 2026-05-09 20:51 | -15.24703 | -146.62093 | 37 ft | 7 kts | 182° |
| 2026-05-09 20:51 | -15.24702 | -146.62117 | 34 ft | 6 kts | 167° |
| 2026-05-09 20:52 | -15.24702 | -146.62111 | 50 ft | 4 kts | 168° |
| 2026-05-09 20:52 | -15.24699 | -146.62099 | 16 ft | 4 kts | 203° |
| 2026-05-09 20:52 | -15.24714 | -146.62100 | 15 ft | 0 kts | 204° |